sensor_id;sensor_type;location;lat;lon;timestamp;P1;durP1;ratioP1;P2;durP2;ratioP2
24859;SDS011;12936;52.006;4.350;2023-04-15T00:02:12;9.60;;;3.53;;
24859;SDS011;12936;52.006;4.350;2023-04-15T00:04:46;8.97;;;3.67;;
24859;SDS011;12936;52.006;4.350;2023-04-15T00:07:15;10.13;;;3.47;;
24859;SDS011;12936;52.006;4.350;2023-04-15T00:09:46;7.10;;;3.63;;
24859;SDS011;12936;52.006;4.350;2023-04-15T00:12:21;6.33;;;3.50;;
24859;SDS011;12936;52.006;4.350;2023-04-15T00:14:49;11.20;;;3.70;;
24859;SDS011;12936;52.006;4.350;2023-04-15T00:17:25;9.00;;;3.40;;
24859;SDS011;12936;52.006;4.350;2023-04-15T00:19:56;7.30;;;3.43;;
24859;SDS011;12936;52.006;4.350;2023-04-15T00:22:28;7.90;;;3.17;;
24859;SDS011;12936;52.006;4.350;2023-04-15T00:25:18;7.40;;;3.17;;
24859;SDS011;12936;52.006;4.350;2023-04-15T00:27:49;8.33;;;3.77;;
24859;SDS011;12936;52.006;4.350;2023-04-15T00:30:17;9.43;;;3.37;;
24859;SDS011;12936;52.006;4.350;2023-04-15T00:32:46;8.00;;;3.67;;
24859;SDS011;12936;52.006;4.350;2023-04-15T00:35:21;8.53;;;3.57;;
24859;SDS011;12936;52.006;4.350;2023-04-15T00:37:55;6.63;;;3.53;;
24859;SDS011;12936;52.006;4.350;2023-04-15T00:40:27;10.60;;;3.70;;
24859;SDS011;12936;52.006;4.350;2023-04-15T00:43:16;7.13;;;3.90;;
24859;SDS011;12936;52.006;4.350;2023-04-15T00:45:47;7.47;;;3.27;;
24859;SDS011;12936;52.006;4.350;2023-04-15T00:48:18;9.50;;;3.47;;
24859;SDS011;12936;52.006;4.350;2023-04-15T00:50:53;8.67;;;3.80;;
24859;SDS011;12936;52.006;4.350;2023-04-15T00:53:25;7.30;;;3.73;;
24859;SDS011;12936;52.006;4.350;2023-04-15T00:56:04;8.90;;;3.90;;
24859;SDS011;12936;52.006;4.350;2023-04-15T00:58:38;5.53;;;3.70;;
24859;SDS011;12936;52.006;4.350;2023-04-15T01:01:09;14.27;;;4.43;;
24859;SDS011;12936;52.006;4.350;2023-04-15T01:03:42;7.37;;;4.10;;
24859;SDS011;12936;52.006;4.350;2023-04-15T01:06:32;8.87;;;4.00;;
24859;SDS011;12936;52.006;4.350;2023-04-15T01:09:02;8.57;;;3.60;;
24859;SDS011;12936;52.006;4.350;2023-04-15T01:11:53;8.50;;;4.30;;
24859;SDS011;12936;52.006;4.350;2023-04-15T01:14:22;8.13;;;3.70;;
24859;SDS011;12936;52.006;4.350;2023-04-15T01:16:53;6.23;;;4.00;;
24859;SDS011;12936;52.006;4.350;2023-04-15T01:19:26;7.93;;;4.10;;
24859;SDS011;12936;52.006;4.350;2023-04-15T01:21:57;6.80;;;4.33;;
24859;SDS011;12936;52.006;4.350;2023-04-15T01:24:46;8.13;;;4.30;;
24859;SDS011;12936;52.006;4.350;2023-04-15T01:27:27;11.03;;;4.37;;
24859;SDS011;12936;52.006;4.350;2023-04-15T01:30:00;11.17;;;4.73;;
24859;SDS011;12936;52.006;4.350;2023-04-15T01:32:38;6.83;;;3.43;;
24859;SDS011;12936;52.006;4.350;2023-04-15T01:35:08;6.87;;;4.07;;
24859;SDS011;12936;52.006;4.350;2023-04-15T01:37:37;6.20;;;3.97;;
24859;SDS011;12936;52.006;4.350;2023-04-15T01:40:06;8.90;;;4.30;;
24859;SDS011;12936;52.006;4.350;2023-04-15T01:42:38;13.23;;;4.47;;
24859;SDS011;12936;52.006;4.350;2023-04-15T01:45:08;7.83;;;4.13;;
24859;SDS011;12936;52.006;4.350;2023-04-15T01:48:01;8.37;;;4.40;;
24859;SDS011;12936;52.006;4.350;2023-04-15T01:50:35;7.70;;;4.40;;
24859;SDS011;12936;52.006;4.350;2023-04-15T01:53:45;8.80;;;4.10;;
24859;SDS011;12936;52.006;4.350;2023-04-15T01:56:13;7.27;;;4.53;;
24859;SDS011;12936;52.006;4.350;2023-04-15T01:58:45;9.03;;;4.60;;
24859;SDS011;12936;52.006;4.350;2023-04-15T02:01:14;8.83;;;4.43;;
24859;SDS011;12936;52.006;4.350;2023-04-15T02:03:45;9.33;;;4.40;;
24859;SDS011;12936;52.006;4.350;2023-04-15T02:06:14;8.67;;;4.53;;
24859;SDS011;12936;52.006;4.350;2023-04-15T02:08:45;9.97;;;4.43;;
24859;SDS011;12936;52.006;4.350;2023-04-15T02:11:14;13.83;;;5.00;;
24859;SDS011;12936;52.006;4.350;2023-04-15T02:13:47;8.70;;;4.13;;
24859;SDS011;12936;52.006;4.350;2023-04-15T02:16:17;10.73;;;4.77;;
24859;SDS011;12936;52.006;4.350;2023-04-15T02:19:09;7.73;;;4.87;;
24859;SDS011;12936;52.006;4.350;2023-04-15T02:21:38;9.87;;;4.67;;
24859;SDS011;12936;52.006;4.350;2023-04-15T02:24:06;12.17;;;4.57;;
24859;SDS011;12936;52.006;4.350;2023-04-15T02:26:37;10.47;;;4.87;;
24859;SDS011;12936;52.006;4.350;2023-04-15T02:29:08;8.17;;;4.43;;
24859;SDS011;12936;52.006;4.350;2023-04-15T02:31:39;9.47;;;4.50;;
24859;SDS011;12936;52.006;4.350;2023-04-15T02:34:31;8.20;;;4.60;;
24859;SDS011;12936;52.006;4.350;2023-04-15T02:37:00;6.53;;;4.17;;
24859;SDS011;12936;52.006;4.350;2023-04-15T02:39:29;10.03;;;4.60;;
24859;SDS011;12936;52.006;4.350;2023-04-15T02:41:59;7.33;;;4.83;;
24859;SDS011;12936;52.006;4.350;2023-04-15T02:44:31;6.83;;;4.40;;
24859;SDS011;12936;52.006;4.350;2023-04-15T02:47:01;10.00;;;5.23;;
24859;SDS011;12936;52.006;4.350;2023-04-15T02:49:51;5.60;;;4.20;;
24859;SDS011;12936;52.006;4.350;2023-04-15T02:52:28;12.13;;;4.87;;
24859;SDS011;12936;52.006;4.350;2023-04-15T02:54:56;9.47;;;5.20;;
24859;SDS011;12936;52.006;4.350;2023-04-15T02:57:27;10.27;;;4.77;;
24859;SDS011;12936;52.006;4.350;2023-04-15T03:00:21;8.33;;;4.70;;
24859;SDS011;12936;52.006;4.350;2023-04-15T03:02:50;8.40;;;4.53;;
24859;SDS011;12936;52.006;4.350;2023-04-15T03:05:34;11.40;;;5.07;;
24859;SDS011;12936;52.006;4.350;2023-04-15T03:08:05;11.97;;;4.73;;
24859;SDS011;12936;52.006;4.350;2023-04-15T03:10:34;8.83;;;5.03;;
24859;SDS011;12936;52.006;4.350;2023-04-15T03:13:03;8.70;;;4.63;;
24859;SDS011;12936;52.006;4.350;2023-04-15T03:15:55;7.30;;;4.30;;
24859;SDS011;12936;52.006;4.350;2023-04-15T03:18:24;8.67;;;4.60;;
24859;SDS011;12936;52.006;4.350;2023-04-15T03:20:54;9.17;;;4.87;;
24859;SDS011;12936;52.006;4.350;2023-04-15T03:23:24;11.37;;;4.50;;
24859;SDS011;12936;52.006;4.350;2023-04-15T03:26:22;8.33;;;5.03;;
24859;SDS011;12936;52.006;4.350;2023-04-15T03:29:11;8.97;;;4.83;;
24859;SDS011;12936;52.006;4.350;2023-04-15T03:31:42;6.43;;;4.83;;
24859;SDS011;12936;52.006;4.350;2023-04-15T03:34:16;6.67;;;4.87;;
24859;SDS011;12936;52.006;4.350;2023-04-15T03:36:45;5.70;;;4.47;;
24859;SDS011;12936;52.006;4.350;2023-04-15T03:39:14;7.07;;;5.10;;
24859;SDS011;12936;52.006;4.350;2023-04-15T03:41:43;10.07;;;4.80;;
24859;SDS011;12936;52.006;4.350;2023-04-15T03:44:12;8.70;;;4.57;;
24859;SDS011;12936;52.006;4.350;2023-04-15T03:46:42;8.40;;;5.27;;
24859;SDS011;12936;52.006;4.350;2023-04-15T03:49:12;8.70;;;5.10;;
24859;SDS011;12936;52.006;4.350;2023-04-15T03:51:46;8.63;;;4.63;;
24859;SDS011;12936;52.006;4.350;2023-04-15T03:54:18;6.90;;;4.53;;
24859;SDS011;12936;52.006;4.350;2023-04-15T03:57:07;9.80;;;5.13;;
24859;SDS011;12936;52.006;4.350;2023-04-15T03:59:55;6.97;;;4.83;;
24859;SDS011;12936;52.006;4.350;2023-04-15T04:02:27;8.47;;;5.27;;
24859;SDS011;12936;52.006;4.350;2023-04-15T04:04:56;5.97;;;4.70;;
24859;SDS011;12936;52.006;4.350;2023-04-15T04:07:24;6.47;;;4.87;;
24859;SDS011;12936;52.006;4.350;2023-04-15T04:09:52;8.37;;;4.90;;
24859;SDS011;12936;52.006;4.350;2023-04-15T04:12:32;9.87;;;5.20;;
24859;SDS011;12936;52.006;4.350;2023-04-15T04:15:04;8.47;;;5.27;;
24859;SDS011;12936;52.006;4.350;2023-04-15T04:17:40;10.70;;;5.30;;
24859;SDS011;12936;52.006;4.350;2023-04-15T04:20:11;8.87;;;5.17;;
24859;SDS011;12936;52.006;4.350;2023-04-15T04:22:40;6.63;;;4.83;;
24859;SDS011;12936;52.006;4.350;2023-04-15T04:25:12;8.27;;;4.80;;
24859;SDS011;12936;52.006;4.350;2023-04-15T04:27:43;9.17;;;5.20;;
24859;SDS011;12936;52.006;4.350;2023-04-15T04:30:14;8.60;;;5.33;;
24859;SDS011;12936;52.006;4.350;2023-04-15T04:32:49;7.93;;;5.43;;
24859;SDS011;12936;52.006;4.350;2023-04-15T04:35:18;8.33;;;5.67;;
24859;SDS011;12936;52.006;4.350;2023-04-15T04:37:50;7.90;;;5.40;;
24859;SDS011;12936;52.006;4.350;2023-04-15T04:40:21;8.23;;;5.40;;
24859;SDS011;12936;52.006;4.350;2023-04-15T04:42:53;7.63;;;5.30;;
24859;SDS011;12936;52.006;4.350;2023-04-15T04:45:24;7.93;;;4.70;;
24859;SDS011;12936;52.006;4.350;2023-04-15T04:47:54;7.30;;;5.10;;
24859;SDS011;12936;52.006;4.350;2023-04-15T04:50:24;9.83;;;5.40;;
24859;SDS011;12936;52.006;4.350;2023-04-15T04:52:52;9.90;;;6.27;;
24859;SDS011;12936;52.006;4.350;2023-04-15T04:55:21;10.57;;;5.80;;
24859;SDS011;12936;52.006;4.350;2023-04-15T04:58:11;8.30;;;5.70;;
24859;SDS011;12936;52.006;4.350;2023-04-15T05:00:40;10.70;;;5.00;;
24859;SDS011;12936;52.006;4.350;2023-04-15T05:03:13;12.27;;;5.80;;
24859;SDS011;12936;52.006;4.350;2023-04-15T05:05:45;8.57;;;5.40;;
24859;SDS011;12936;52.006;4.350;2023-04-15T05:08:15;12.93;;;5.80;;
24859;SDS011;12936;52.006;4.350;2023-04-15T05:10:45;8.13;;;5.60;;
24859;SDS011;12936;52.006;4.350;2023-04-15T05:13:34;8.80;;;6.07;;
24859;SDS011;12936;52.006;4.350;2023-04-15T05:16:05;8.67;;;5.53;;
24859;SDS011;12936;52.006;4.350;2023-04-15T05:18:37;7.67;;;5.40;;
24859;SDS011;12936;52.006;4.350;2023-04-15T05:21:09;11.30;;;6.10;;
24859;SDS011;12936;52.006;4.350;2023-04-15T05:23:38;8.00;;;5.53;;
24859;SDS011;12936;52.006;4.350;2023-04-15T05:26:06;11.07;;;5.90;;
24859;SDS011;12936;52.006;4.350;2023-04-15T05:28:34;8.60;;;5.67;;
24859;SDS011;12936;52.006;4.350;2023-04-15T05:31:03;7.33;;;5.43;;
24859;SDS011;12936;52.006;4.350;2023-04-15T05:33:31;10.20;;;5.40;;
24859;SDS011;12936;52.006;4.350;2023-04-15T05:36:00;9.93;;;5.83;;
24859;SDS011;12936;52.006;4.350;2023-04-15T05:38:28;6.10;;;5.50;;
24859;SDS011;12936;52.006;4.350;2023-04-15T05:40:56;8.33;;;5.83;;
24859;SDS011;12936;52.006;4.350;2023-04-15T05:43:24;12.70;;;6.07;;
24859;SDS011;12936;52.006;4.350;2023-04-15T05:45:52;9.73;;;6.10;;
24859;SDS011;12936;52.006;4.350;2023-04-15T05:48:20;7.80;;;5.40;;
24859;SDS011;12936;52.006;4.350;2023-04-15T05:50:48;8.27;;;6.27;;
24859;SDS011;12936;52.006;4.350;2023-04-15T05:53:18;13.00;;;6.27;;
24859;SDS011;12936;52.006;4.350;2023-04-15T05:55:46;7.73;;;5.53;;
24859;SDS011;12936;52.006;4.350;2023-04-15T05:58:14;8.67;;;5.50;;
24859;SDS011;12936;52.006;4.350;2023-04-15T06:00:42;8.60;;;6.03;;
24859;SDS011;12936;52.006;4.350;2023-04-15T06:03:11;9.30;;;5.97;;
24859;SDS011;12936;52.006;4.350;2023-04-15T06:05:39;10.27;;;5.73;;
24859;SDS011;12936;52.006;4.350;2023-04-15T06:08:07;8.03;;;5.40;;
24859;SDS011;12936;52.006;4.350;2023-04-15T06:10:37;10.47;;;5.33;;
24859;SDS011;12936;52.006;4.350;2023-04-15T06:13:05;8.10;;;5.53;;
24859;SDS011;12936;52.006;4.350;2023-04-15T06:15:34;7.40;;;5.50;;
24859;SDS011;12936;52.006;4.350;2023-04-15T06:18:02;11.57;;;6.27;;
24859;SDS011;12936;52.006;4.350;2023-04-15T06:20:30;9.30;;;6.17;;
24859;SDS011;12936;52.006;4.350;2023-04-15T06:22:58;8.60;;;5.97;;
24859;SDS011;12936;52.006;4.350;2023-04-15T06:25:26;9.23;;;5.83;;
24859;SDS011;12936;52.006;4.350;2023-04-15T06:27:56;8.43;;;6.00;;
24859;SDS011;12936;52.006;4.350;2023-04-15T06:30:24;8.57;;;6.43;;
24859;SDS011;12936;52.006;4.350;2023-04-15T06:32:52;11.43;;;6.17;;
24859;SDS011;12936;52.006;4.350;2023-04-15T06:35:21;8.50;;;6.13;;
24859;SDS011;12936;52.006;4.350;2023-04-15T06:37:49;8.30;;;6.17;;
24859;SDS011;12936;52.006;4.350;2023-04-15T06:40:17;8.20;;;5.83;;
24859;SDS011;12936;52.006;4.350;2023-04-15T06:42:46;10.47;;;6.30;;
24859;SDS011;12936;52.006;4.350;2023-04-15T06:45:15;8.63;;;6.23;;
24859;SDS011;12936;52.006;4.350;2023-04-15T06:47:43;8.13;;;6.13;;
24859;SDS011;12936;52.006;4.350;2023-04-15T06:50:11;12.37;;;7.17;;
24859;SDS011;12936;52.006;4.350;2023-04-15T06:52:39;9.80;;;6.43;;
24859;SDS011;12936;52.006;4.350;2023-04-15T06:55:07;10.87;;;6.67;;
24859;SDS011;12936;52.006;4.350;2023-04-15T06:57:39;9.00;;;6.30;;
24859;SDS011;12936;52.006;4.350;2023-04-15T07:00:07;9.37;;;6.30;;
24859;SDS011;12936;52.006;4.350;2023-04-15T07:02:38;7.77;;;6.07;;
24859;SDS011;12936;52.006;4.350;2023-04-15T07:05:06;8.90;;;6.43;;
24859;SDS011;12936;52.006;4.350;2023-04-15T07:07:35;8.27;;;6.30;;
24859;SDS011;12936;52.006;4.350;2023-04-15T07:10:04;8.93;;;6.20;;
24859;SDS011;12936;52.006;4.350;2023-04-15T07:12:33;10.53;;;6.00;;
24859;SDS011;12936;52.006;4.350;2023-04-15T07:15:01;8.30;;;5.97;;
24859;SDS011;12936;52.006;4.350;2023-04-15T07:17:30;8.07;;;6.27;;
24859;SDS011;12936;52.006;4.350;2023-04-15T07:19:59;9.73;;;6.37;;
24859;SDS011;12936;52.006;4.350;2023-04-15T07:22:27;7.43;;;5.97;;
24859;SDS011;12936;52.006;4.350;2023-04-15T07:24:55;7.13;;;5.53;;
24859;SDS011;12936;52.006;4.350;2023-04-15T07:27:23;12.33;;;6.20;;
24859;SDS011;12936;52.006;4.350;2023-04-15T07:29:52;8.57;;;6.10;;
24859;SDS011;12936;52.006;4.350;2023-04-15T07:32:22;7.23;;;5.83;;
24859;SDS011;12936;52.006;4.350;2023-04-15T07:34:50;8.80;;;6.13;;
24859;SDS011;12936;52.006;4.350;2023-04-15T07:37:20;9.43;;;5.80;;
24859;SDS011;12936;52.006;4.350;2023-04-15T07:39:47;7.90;;;6.47;;
24859;SDS011;12936;52.006;4.350;2023-04-15T07:42:15;10.57;;;6.67;;
24859;SDS011;12936;52.006;4.350;2023-04-15T07:44:43;9.50;;;6.20;;
24859;SDS011;12936;52.006;4.350;2023-04-15T07:47:12;10.93;;;6.60;;
24859;SDS011;12936;52.006;4.350;2023-04-15T07:49:40;10.03;;;6.23;;
24859;SDS011;12936;52.006;4.350;2023-04-15T07:52:09;7.87;;;5.90;;
24859;SDS011;12936;52.006;4.350;2023-04-15T07:54:39;8.67;;;6.00;;
24859;SDS011;12936;52.006;4.350;2023-04-15T07:57:07;8.53;;;5.87;;
24859;SDS011;12936;52.006;4.350;2023-04-15T07:59:35;7.67;;;5.63;;
24859;SDS011;12936;52.006;4.350;2023-04-15T08:02:03;12.43;;;6.07;;
24859;SDS011;12936;52.006;4.350;2023-04-15T08:04:31;7.50;;;5.67;;
24859;SDS011;12936;52.006;4.350;2023-04-15T08:06:59;8.57;;;6.00;;
24859;SDS011;12936;52.006;4.350;2023-04-15T08:09:28;7.63;;;5.60;;
24859;SDS011;12936;52.006;4.350;2023-04-15T08:11:57;8.40;;;6.23;;
24859;SDS011;12936;52.006;4.350;2023-04-15T08:14:26;10.30;;;6.43;;
24859;SDS011;12936;52.006;4.350;2023-04-15T08:16:54;7.97;;;6.03;;
24859;SDS011;12936;52.006;4.350;2023-04-15T08:19:22;9.37;;;6.83;;
24859;SDS011;12936;52.006;4.350;2023-04-15T08:21:50;6.73;;;6.03;;
24859;SDS011;12936;52.006;4.350;2023-04-15T08:24:18;8.17;;;6.43;;
24859;SDS011;12936;52.006;4.350;2023-04-15T08:26:46;10.57;;;6.80;;
24859;SDS011;12936;52.006;4.350;2023-04-15T08:29:16;9.10;;;6.87;;
24859;SDS011;12936;52.006;4.350;2023-04-15T08:31:44;9.50;;;7.00;;
24859;SDS011;12936;52.006;4.350;2023-04-15T08:34:13;9.13;;;7.17;;
24859;SDS011;12936;52.006;4.350;2023-04-15T08:36:41;9.03;;;6.80;;
24859;SDS011;12936;52.006;4.350;2023-04-15T08:39:09;8.27;;;6.67;;
24859;SDS011;12936;52.006;4.350;2023-04-15T08:41:38;9.97;;;6.63;;
24859;SDS011;12936;52.006;4.350;2023-04-15T08:44:09;9.90;;;7.00;;
24859;SDS011;12936;52.006;4.350;2023-04-15T08:46:39;11.33;;;7.23;;
24859;SDS011;12936;52.006;4.350;2023-04-15T08:49:09;8.33;;;6.77;;
24859;SDS011;12936;52.006;4.350;2023-04-15T08:51:38;8.87;;;6.10;;
24859;SDS011;12936;52.006;4.350;2023-04-15T08:54:07;9.17;;;6.23;;
24859;SDS011;12936;52.006;4.350;2023-04-15T08:56:35;8.70;;;6.53;;
24859;SDS011;12936;52.006;4.350;2023-04-15T08:59:06;6.77;;;5.80;;
24859;SDS011;12936;52.006;4.350;2023-04-15T09:01:35;9.73;;;6.63;;
24859;SDS011;12936;52.006;4.350;2023-04-15T09:04:05;9.70;;;6.67;;
24859;SDS011;12936;52.006;4.350;2023-04-15T09:06:33;7.40;;;5.93;;
24859;SDS011;12936;52.006;4.350;2023-04-15T09:09:02;8.67;;;6.70;;
24859;SDS011;12936;52.006;4.350;2023-04-15T09:11:30;15.57;;;6.80;;
24859;SDS011;12936;52.006;4.350;2023-04-15T09:13:58;8.83;;;6.33;;
24859;SDS011;12936;52.006;4.350;2023-04-15T09:16:29;8.50;;;6.50;;
24859;SDS011;12936;52.006;4.350;2023-04-15T09:18:57;9.00;;;6.70;;
24859;SDS011;12936;52.006;4.350;2023-04-15T09:21:27;8.20;;;6.10;;
24859;SDS011;12936;52.006;4.350;2023-04-15T09:23:59;8.63;;;6.13;;
24859;SDS011;12936;52.006;4.350;2023-04-15T09:26:29;10.00;;;5.87;;
24859;SDS011;12936;52.006;4.350;2023-04-15T09:29:02;6.50;;;5.30;;
24859;SDS011;12936;52.006;4.350;2023-04-15T09:31:32;9.50;;;5.93;;
24859;SDS011;12936;52.006;4.350;2023-04-15T09:34:00;7.97;;;5.87;;
24859;SDS011;12936;52.006;4.350;2023-04-15T09:36:29;8.57;;;6.20;;
24859;SDS011;12936;52.006;4.350;2023-04-15T09:39:07;7.40;;;5.57;;
24859;SDS011;12936;52.006;4.350;2023-04-15T09:41:36;8.90;;;5.33;;
24859;SDS011;12936;52.006;4.350;2023-04-15T09:44:04;7.83;;;5.10;;
24859;SDS011;12936;52.006;4.350;2023-04-15T09:46:41;8.37;;;4.93;;
24859;SDS011;12936;52.006;4.350;2023-04-15T09:49:10;7.07;;;4.73;;
24859;SDS011;12936;52.006;4.350;2023-04-15T09:51:44;10.33;;;5.00;;
24859;SDS011;12936;52.006;4.350;2023-04-15T09:54:33;6.50;;;4.73;;
24859;SDS011;12936;52.006;4.350;2023-04-15T09:57:04;9.93;;;4.97;;
24859;SDS011;12936;52.006;4.350;2023-04-15T09:59:32;7.43;;;4.60;;
24859;SDS011;12936;52.006;4.350;2023-04-15T10:02:01;6.87;;;4.30;;
24859;SDS011;12936;52.006;4.350;2023-04-15T10:04:33;10.53;;;5.07;;
24859;SDS011;12936;52.006;4.350;2023-04-15T10:07:05;5.43;;;4.40;;
24859;SDS011;12936;52.006;4.350;2023-04-15T10:09:35;7.63;;;5.40;;
24859;SDS011;12936;52.006;4.350;2023-04-15T10:12:04;8.63;;;5.57;;
24859;SDS011;12936;52.006;4.350;2023-04-15T10:14:33;8.97;;;4.47;;
24859;SDS011;12936;52.006;4.350;2023-04-15T10:17:04;7.87;;;4.83;;
24859;SDS011;12936;52.006;4.350;2023-04-15T10:19:33;9.23;;;4.47;;
24859;SDS011;12936;52.006;4.350;2023-04-15T10:22:05;7.47;;;3.80;;
24859;SDS011;12936;52.006;4.350;2023-04-15T10:24:33;8.40;;;3.77;;
24859;SDS011;12936;52.006;4.350;2023-04-15T10:27:02;5.53;;;3.10;;
24859;SDS011;12936;52.006;4.350;2023-04-15T10:29:32;3.37;;;2.60;;
24859;SDS011;12936;52.006;4.350;2023-04-15T10:32:00;6.20;;;3.07;;
24859;SDS011;12936;52.006;4.350;2023-04-15T10:34:29;5.23;;;2.73;;
24859;SDS011;12936;52.006;4.350;2023-04-15T10:37:00;4.13;;;2.80;;
24859;SDS011;12936;52.006;4.350;2023-04-15T10:39:41;4.57;;;2.40;;
24859;SDS011;12936;52.006;4.350;2023-04-15T10:42:10;35.47;;;4.97;;
24859;SDS011;12936;52.006;4.350;2023-04-15T10:44:40;17.67;;;4.13;;
24859;SDS011;12936;52.006;4.350;2023-04-15T10:47:10;11.23;;;2.87;;
24859;SDS011;12936;52.006;4.350;2023-04-15T10:49:44;4.50;;;2.13;;
24859;SDS011;12936;52.006;4.350;2023-04-15T10:52:14;5.80;;;2.20;;
24859;SDS011;12936;52.006;4.350;2023-04-15T10:54:44;4.07;;;2.10;;
24859;SDS011;12936;52.006;4.350;2023-04-15T10:57:13;12.53;;;2.70;;
24859;SDS011;12936;52.006;4.350;2023-04-15T10:59:58;6.53;;;2.60;;
24859;SDS011;12936;52.006;4.350;2023-04-15T11:02:37;5.67;;;2.43;;
24859;SDS011;12936;52.006;4.350;2023-04-15T11:05:07;4.53;;;2.67;;
24859;SDS011;12936;52.006;4.350;2023-04-15T11:07:36;3.37;;;2.17;;
24859;SDS011;12936;52.006;4.350;2023-04-15T11:13:23;4.33;;;2.97;;
24859;SDS011;12936;52.006;4.350;2023-04-15T11:15:57;3.90;;;2.70;;
24859;SDS011;12936;52.006;4.350;2023-04-15T11:18:28;4.90;;;2.53;;
24859;SDS011;12936;52.006;4.350;2023-04-15T11:20:59;7.17;;;2.57;;
24859;SDS011;12936;52.006;4.350;2023-04-15T11:23:32;6.77;;;3.00;;
24859;SDS011;12936;52.006;4.350;2023-04-15T11:26:05;5.40;;;2.47;;
24859;SDS011;12936;52.006;4.350;2023-04-15T11:28:39;4.43;;;1.90;;
24859;SDS011;12936;52.006;4.350;2023-04-15T11:31:08;4.80;;;2.20;;
24859;SDS011;12936;52.006;4.350;2023-04-15T11:33:47;3.27;;;2.20;;
24859;SDS011;12936;52.006;4.350;2023-04-15T11:36:22;3.67;;;2.27;;
24859;SDS011;12936;52.006;4.350;2023-04-15T11:38:52;4.53;;;2.27;;
24859;SDS011;12936;52.006;4.350;2023-04-15T11:41:21;5.73;;;3.10;;
24859;SDS011;12936;52.006;4.350;2023-04-15T11:43:51;5.35;;;2.97;;
24859;SDS011;12936;52.006;4.350;2023-04-15T11:46:19;4.27;;;2.90;;
24859;SDS011;12936;52.006;4.350;2023-04-15T11:48:48;7.20;;;3.10;;
24859;SDS011;12936;52.006;4.350;2023-04-15T11:51:16;5.63;;;3.33;;
24859;SDS011;12936;52.006;4.350;2023-04-15T11:53:46;5.30;;;3.20;;
24859;SDS011;12936;52.006;4.350;2023-04-15T11:56:16;6.90;;;3.10;;
24859;SDS011;12936;52.006;4.350;2023-04-15T11:58:45;7.03;;;3.07;;
24859;SDS011;12936;52.006;4.350;2023-04-15T12:01:17;7.53;;;3.63;;
24859;SDS011;12936;52.006;4.350;2023-04-15T12:03:45;8.33;;;3.20;;
24859;SDS011;12936;52.006;4.350;2023-04-15T12:06:15;7.30;;;3.40;;
24859;SDS011;12936;52.006;4.350;2023-04-15T12:09:07;6.53;;;3.50;;
24859;SDS011;12936;52.006;4.350;2023-04-15T12:11:38;6.53;;;3.73;;
24859;SDS011;12936;52.006;4.350;2023-04-15T12:14:12;8.50;;;3.87;;
24859;SDS011;12936;52.006;4.350;2023-04-15T12:16:47;9.63;;;3.90;;
24859;SDS011;12936;52.006;4.350;2023-04-15T12:19:20;6.07;;;3.37;;
24859;SDS011;12936;52.006;4.350;2023-04-15T12:21:52;6.77;;;3.17;;
24859;SDS011;12936;52.006;4.350;2023-04-15T12:24:25;7.93;;;3.17;;
24859;SDS011;12936;52.006;4.350;2023-04-15T12:26:55;9.37;;;3.23;;
24859;SDS011;12936;52.006;4.350;2023-04-15T12:29:25;6.33;;;3.00;;
24859;SDS011;12936;52.006;4.350;2023-04-15T12:31:57;7.90;;;3.10;;
24859;SDS011;12936;52.006;4.350;2023-04-15T12:34:30;4.73;;;3.00;;
24859;SDS011;12936;52.006;4.350;2023-04-15T12:36:59;8.70;;;2.97;;
24859;SDS011;12936;52.006;4.350;2023-04-15T12:39:29;10.33;;;3.43;;
24859;SDS011;12936;52.006;4.350;2023-04-15T12:41:58;7.43;;;3.00;;
24859;SDS011;12936;52.006;4.350;2023-04-15T12:44:27;6.63;;;3.30;;
24859;SDS011;12936;52.006;4.350;2023-04-15T12:46:56;9.23;;;3.67;;
24859;SDS011;12936;52.006;4.350;2023-04-15T12:49:25;5.97;;;3.60;;
24859;SDS011;12936;52.006;4.350;2023-04-15T12:51:54;6.73;;;3.50;;
24859;SDS011;12936;52.006;4.350;2023-04-15T12:54:24;6.20;;;3.30;;
24859;SDS011;12936;52.006;4.350;2023-04-15T12:56:53;6.60;;;2.50;;
24859;SDS011;12936;52.006;4.350;2023-04-15T12:59:21;7.73;;;3.23;;
24859;SDS011;12936;52.006;4.350;2023-04-15T13:01:50;7.30;;;2.57;;
24859;SDS011;12936;52.006;4.350;2023-04-15T13:04:20;8.63;;;2.83;;
24859;SDS011;12936;52.006;4.350;2023-04-15T13:06:49;7.57;;;2.97;;
24859;SDS011;12936;52.006;4.350;2023-04-15T13:09:17;7.87;;;2.60;;
24859;SDS011;12936;52.006;4.350;2023-04-15T13:11:45;6.07;;;2.50;;
24859;SDS011;12936;52.006;4.350;2023-04-15T13:14:13;7.80;;;2.60;;
24859;SDS011;12936;52.006;4.350;2023-04-15T13:16:41;4.60;;;2.13;;
24859;SDS011;12936;52.006;4.350;2023-04-15T13:19:09;3.03;;;2.10;;
24859;SDS011;12936;52.006;4.350;2023-04-15T13:21:38;5.40;;;2.60;;
24859;SDS011;12936;52.006;4.350;2023-04-15T13:24:07;7.13;;;2.10;;
24859;SDS011;12936;52.006;4.350;2023-04-15T13:26:35;9.93;;;2.20;;
24859;SDS011;12936;52.006;4.350;2023-04-15T13:29:03;8.68;;;2.63;;
24859;SDS011;12936;52.006;4.350;2023-04-15T13:31:32;5.57;;;2.50;;
24859;SDS011;12936;52.006;4.350;2023-04-15T13:34:00;5.77;;;2.00;;
24859;SDS011;12936;52.006;4.350;2023-04-15T13:36:28;6.97;;;2.30;;
24859;SDS011;12936;52.006;4.350;2023-04-15T13:38:58;6.90;;;2.07;;
24859;SDS011;12936;52.006;4.350;2023-04-15T13:41:26;6.00;;;2.70;;
24859;SDS011;12936;52.006;4.350;2023-04-15T13:43:54;6.37;;;2.20;;
24859;SDS011;12936;52.006;4.350;2023-04-15T13:46:23;4.50;;;2.13;;
24859;SDS011;12936;52.006;4.350;2023-04-15T13:48:51;6.93;;;2.30;;
24859;SDS011;12936;52.006;4.350;2023-04-15T13:51:20;5.22;;;2.35;;
24859;SDS011;12936;52.006;4.350;2023-04-15T13:53:48;7.03;;;2.60;;
24859;SDS011;12936;52.006;4.350;2023-04-15T13:56:17;6.50;;;2.60;;
24859;SDS011;12936;52.006;4.350;2023-04-15T13:58:45;6.18;;;2.35;;
24859;SDS011;12936;52.006;4.350;2023-04-15T14:01:13;7.93;;;2.47;;
24859;SDS011;12936;52.006;4.350;2023-04-15T14:03:42;4.82;;;2.15;;
24859;SDS011;12936;52.006;4.350;2023-04-15T14:06:10;10.00;;;2.50;;
24859;SDS011;12936;52.006;4.350;2023-04-15T14:08:38;8.93;;;2.40;;
24859;SDS011;12936;52.006;4.350;2023-04-15T14:11:06;6.85;;;2.05;;
24859;SDS011;12936;52.006;4.350;2023-04-15T14:13:36;7.07;;;2.35;;
24859;SDS011;12936;52.006;4.350;2023-04-15T14:16:04;4.68;;;2.13;;
24859;SDS011;12936;52.006;4.350;2023-04-15T14:18:32;5.90;;;2.20;;
24859;SDS011;12936;52.006;4.350;2023-04-15T14:21:00;5.43;;;1.95;;
24859;SDS011;12936;52.006;4.350;2023-04-15T14:23:28;3.50;;;1.70;;
24859;SDS011;12936;52.006;4.350;2023-04-15T14:25:57;6.43;;;1.60;;
24859;SDS011;12936;52.006;4.350;2023-04-15T14:28:25;3.95;;;1.50;;
24859;SDS011;12936;52.006;4.350;2023-04-15T14:30:54;9.85;;;1.77;;
24859;SDS011;12936;52.006;4.350;2023-04-15T14:33:22;8.07;;;1.80;;
24859;SDS011;12936;52.006;4.350;2023-04-15T14:35:50;8.27;;;2.10;;
24859;SDS011;12936;52.006;4.350;2023-04-15T14:38:18;9.93;;;2.00;;
24859;SDS011;12936;52.006;4.350;2023-04-15T14:40:48;5.57;;;2.10;;
24859;SDS011;12936;52.006;4.350;2023-04-15T14:43:15;4.00;;;1.95;;
24859;SDS011;12936;52.006;4.350;2023-04-15T14:45:44;6.28;;;2.10;;
24859;SDS011;12936;52.006;4.350;2023-04-15T14:48:13;6.47;;;2.10;;
24859;SDS011;12936;52.006;4.350;2023-04-15T14:50:42;6.47;;;2.65;;
24859;SDS011;12936;52.006;4.350;2023-04-15T14:53:10;5.28;;;2.20;;
24859;SDS011;12936;52.006;4.350;2023-04-15T14:55:38;4.05;;;1.90;;
24859;SDS011;12936;52.006;4.350;2023-04-15T14:58:06;10.48;;;2.50;;
24859;SDS011;12936;52.006;4.350;2023-04-15T15:00:34;11.05;;;2.30;;
24859;SDS011;12936;52.006;4.350;2023-04-15T15:03:04;5.05;;;2.10;;
24859;SDS011;12936;52.006;4.350;2023-04-15T15:05:39;4.90;;;2.42;;
24859;SDS011;12936;52.006;4.350;2023-04-15T15:08:08;8.63;;;2.45;;
24859;SDS011;12936;52.006;4.350;2023-04-15T15:10:39;4.05;;;1.92;;
24859;SDS011;12936;52.006;4.350;2023-04-15T15:13:15;5.78;;;1.90;;